Date,TemperatureHighF,TemperatureAvgF,TemperatureLowF,DewpointHighF,DewpointAvgF,DewpointLowF,HumidityHigh,HumidityAvg,HumidityLow,PressureMaxIn,PressureMinIn,WindSpeedMaxMPH,WindSpeedAvgMPH,GustSpeedMaxMPH,PrecipitationSumIn
2013-1-1,22,14,3,19,11,1,98,86,76,0.00,40.00,12,4,18,0.00
2013-1-2,33,22,10,29,20,10,100,93,81,0.00,40.00,7,4,14,0.02
2013-1-3,29,18,10,28,16,8,99,88,78,0.00,40.00,14,6,28,0.01
2013-1-4,35,20,11,18,14,10,96,79,49,0.00,40.00,4,2,9,0.00
2013-1-5,32,19,10,23,15,8,95,83,68,0.00,40.00,17,7,28,0.00
2013-1-6,32,20,5,21,15,4,100,83,63,0.00,40.00,12,4,21,0.00
2013-1-7,39,28,19,26,22,19,100,81,57,0.00,40.00,6,3,15,0.00
2013-1-8,32,22,11,29,21,11,100,94,84,0.00,40.00,5,3,11,0.00
2013-1-9,45,33,21,31,28,21,100,82,54,0.00,40.00,6,3,11,0.00
2013-1-10,41,34,32,31,-5,-100,90,45,49,0.00,40.00,7,4,16,0.03
2013-1-11,32,32,32,-51,-51,-51,0,0,100,0.00,40.00,15,6,24,0.02
2013-1-12,32,32,32,-51,-51,-51,0,0,100,0.00,40.00,15,11,29,0.01
2013-1-13,32,32,32,-51,-51,-51,0,0,100,0.00,40.00,11,7,19,0.00
2013-1-14,32,32,32,-51,-51,-51,0,0,100,0.00,40.00,9,3,14,0.00
2013-1-15,32,32,32,-51,-51,-51,0,0,100,0.00,40.00,14,6,22,0.00
2013-1-16,32,32,32,-51,-51,-51,0,0,100,0.00,40.00,14,6,25,0.00
2013-1-17,32,32,32,-51,-51,-51,0,0,100,0.00,40.00,7,4,11,0.00
2013-1-18,32,32,32,-51,-51,-51,0,0,100,0.00,40.00,10,5,15,0.00
2013-1-19,32,32,32,-51,-51,-51,0,0,100,0.00,40.00,18,9,35,0.00
2013-1-20,32,32,32,-51,-51,-51,0,0,100,0.00,40.00,13,7,21,0.00
2013-1-21,32,32,32,-51,-59,-100,0,0,100,0.00,40.00,15,8,23,0.00
2013-1-22,32,32,32,-100,-100,-100,0,0,100,0.00,40.00,6,4,11,0.00
2013-1-23,32,32,32,-100,-100,-100,0,0,100,0.00,40.00,12,6,24,0.00
2013-1-24,32,32,32,-100,-100,-100,0,0,100,0.00,40.00,8,6,17,0.00
2013-1-25,32,32,32,-100,-100,-100,0,0,100,0.00,40.00,15,6,22,0.00
2013-1-26,32,32,32,-100,-100,-100,0,0,100,0.00,40.00,9,6,15,0.00
2013-1-27,32,32,32,-100,-100,-100,0,0,100,0.00,40.00,8,4,15,0.30
2013-1-28,32,32,32,-100,-100,-100,0,0,100,0.00,40.00,6,3,12,0.02
2013-1-29,32,32,32,-100,-100,-100,0,0,100,0.00,40.00,13,8,23,0.02
2013-1-30,32,32,32,-100,-100,-100,0,0,100,0.00,40.00,16,13,30,0.00
2013-1-31,32,32,32,-100,-100,-100,0,0,100,0.00,40.00,18,13,30,0.00
2013-2-1,32,32,32,-100,-100,-100,0,0,100,0.00,40.00,9,5,20,0.00
2013-2-2,32,32,32,-100,-100,-100,0,0,100,0.00,40.00,15,7,33,0.01
2013-2-3,32,32,32,-100,-100,-100,0,0,100,0.00,40.00,15,6,24,0.01
2013-2-4,32,32,32,-100,-100,-100,0,0,100,0.00,40.00,15,8,22,0.00
2013-2-5,32,32,32,-100,-100,-100,0,0,100,0.00,40.00,13,5,22,0.00
2013-2-6,32,32,32,-100,-100,-100,0,0,100,0.00,40.00,9,5,19,0.00
2013-2-7,32,32,32,-100,-100,-100,0,0,100,0.00,40.00,11,7,19,0.00
2013-2-8,32,32,32,-100,-100,-100,0,0,100,0.00,40.00,10,6,20,0.00
2013-2-9,32,32,32,-100,-100,-100,0,0,100,0.00,40.00,12,7,22,0.00
2013-2-10,32,32,32,-100,-100,-100,0,0,100,0.00,40.00,18,12,31,0.20
2013-2-11,32,32,32,-100,-100,-100,0,0,100,0.00,40.00,20,12,33,0.02
2013-2-12,32,32,32,-100,-100,-100,0,0,100,0.00,40.00,9,6,14,0.00
2013-2-13,32,32,32,-100,-100,-100,0,0,100,0.00,40.00,10,4,17,0.00
2013-2-14,32,32,32,-100,-100,-100,0,0,100,0.00,40.00,15,10,27,0.00
2013-2-15,32,32,32,-100,-100,-100,0,0,100,0.00,40.00,9,4,15,0.00
2013-2-16,32,32,32,-100,-100,-100,0,0,100,0.00,40.00,11,6,16,0.01
2013-2-17,32,32,32,-100,-100,-100,0,0,100,0.00,40.00,8,6,21,0.01
2013-2-19,32,32,32,-100,-100,-100,0,0,100,0.00,40.00,20,13,31,0.00
2013-2-20,32,32,32,-100,-100,-100,0,0,100,0.00,40.00,5,3,11,0.00
2013-2-25,28,27,27,26,26,25,94,93,88,0.00,40.00,6,5,10,0.00
2013-2-26,33,25,20,28,24,20,100,94,81,0.00,40.00,11,7,18,0.00
2013-2-27,26,22,19,24,20,16,94,92,88,0.00,40.00,12,10,21,0.00
2013-3-6,35,28,21,23,21,16,88,75,59,0.00,40.00,8,5,16,0.00
2013-3-7,48,33,21,31,25,19,92,75,48,0.00,40.00,10,7,18,0.00
2013-3-8,52,39,27,39,31,24,90,75,55,0.00,40.00,10,6,17,0.01
2013-3-9,44,39,32,43,39,32,100,99,86,0.00,40.00,11,8,23,0.83
2013-3-10,32,27,22,32,25,19,100,92,85,0.00,40.00,14,12,29,0.32
2013-3-11,33,24,16,25,20,13,94,82,65,0.00,40.00,11,8,24,0.15
2013-3-12,31,27,21,26,22,18,100,83,69,0.00,40.00,18,11,30,0.01
2013-3-13,36,24,13,24,19,12,100,80,60,0.00,40.00,7,4,15,0.01
2013-3-14,60,41,29,46,34,22,94,75,59,0.00,40.00,9,5,15,0.00
2013-3-15,50,44,35,42,39,34,97,83,72,0.00,40.00,14,6,20,0.00
2013-3-16,35,29,23,34,24,20,100,82,62,0.00,40.00,16,10,24,0.00
2013-3-17,42,29,20,32,21,15,93,73,58,0.00,40.00,12,8,24,0.02
2013-3-18,35,27,19,35,19,10,100,71,48,0.00,40.00,19,14,34,0.03
2013-3-19,40,24,13,20,13,7,85,64,43,0.00,40.00,13,7,25,0.01
2013-3-20,32,21,11,12,8,6,84,60,35,0.00,40.00,12,9,25,0.00
2013-3-21,35,22,12,20,12,7,81,65,34,0.00,40.00,9,6,16,0.00
2013-3-22,36,27,20,25,18,16,84,70,51,0.00,40.00,9,5,16,0.00
2013-3-23,35,30,27,30,26,22,98,82,67,0.00,40.00,9,5,15,0.00
2013-3-24,28,26,23,27,21,18,99,82,68,0.00,40.00,14,10,27,0.00
2013-3-25,30,26,23,27,21,18,99,82,64,0.00,40.00,14,10,24,0.01
2013-3-26,41,28,14,24,18,12,95,67,44,0.00,40.00,9,4,14,0.01
2013-3-27,54,37,27,28,24,22,81,62,35,0.00,40.00,8,6,18,0.00
2013-3-28,57,52,43,34,32,32,66,48,40,0.00,40.00,6,5,17,0.00
2013-3-29,68,52,37,39,35,32,84,56,30,0.00,40.00,11,6,34,0.00
2013-3-30,63,52,40,47,42,-100,98,76,41,0.00,40.00,21,7,34,0.13
2013-3-31,50,38,26,39,31,22,100,78,38,0.00,40.00,15,8,22,0.00
2013-4-1,41,27,14,22,16,13,96,67,32,0.00,40.00,9,6,19,0.01
2013-4-2,51,36,18,26,21,15,94,59,35,0.00,40.00,9,4,15,0.01
2013-4-3,62,44,31,28,26,23,77,53,26,0.00,40.00,18,10,28,0.00
2013-4-4,61,46,34,36,28,19,82,52,20,0.00,40.00,14,6,22,0.00
2013-4-5,64,47,30,38,30,25,82,57,34,0.00,40.00,14,7,23,0.00
2013-4-6,68,55,41,45,38,34,88,55,31,0.00,40.00,18,10,32,0.03
2013-4-7,65,46,31,50,39,31,100,78,45,0.00,40.00,10,6,19,0.02
2013-4-8,75,53,37,51,45,37,100,81,40,0.00,40.00,21,7,33,0.02
2013-4-9,45,36,29,44,35,29,100,98,92,0.00,40.00,21,14,38,1.07
2013-4-10,34,32,31,32,32,31,100,97,93,0.00,40.00,0,0,0,0.58
2013-4-11,38,33,29,34,32,29,100,96,86,0.00,40.00,11,5,19,0.71
2013-4-12,34,32,30,32,29,26,100,90,73,0.00,40.00,14,10,22,0.18
2013-4-13,48,36,20,36,30,20,100,80,60,0.00,40.00,9,4,19,0.01
2013-4-14,56,46,40,50,40,30,97,80,54,0.00,40.00,15,10,27,0.11
2013-4-15,45,37,30,32,28,22,84,70,59,0.00,40.00,14,10,26,0.01
2013-4-16,51,39,31,31,29,28,91,69,43,0.00,40.00,12,7,20,0.00
2013-4-17,38,36,34,37,34,29,100,92,74,0.00,40.00,15,12,27,0.44
2013-4-18,34,32,30,34,32,29,100,98,93,0.00,40.00,19,13,30,0.37
2013-4-19,40,31,23,29,23,19,96,72,50,0.00,40.00,15,11,31,0.01
2013-4-20,42,33,21,28,23,20,98,69,47,0.00,40.00,8,4,14,0.00
2013-4-21,59,47,38,46,37,27,87,68,53,0.00,40.00,17,9,24,0.00
2013-4-22,42,34,28,38,33,26,100,95,85,0.00,40.00,16,10,25,0.16
2013-4-23,35,30,25,27,24,20,95,78,62,0.00,40.00,14,9,22,0.16
2013-4-24,53,37,23,42,29,21,98,76,50,0.00,40.00,18,8,32,0.01
2013-4-25,70,49,25,38,32,25,100,61,26,0.00,40.00,16,6,30,0.00
2013-4-26,77,61,45,42,38,32,75,45,23,0.00,40.00,11,6,20,0.00
2013-4-27,78,60,41,49,44,35,100,60,29,0.00,40.00,9,5,16,0.00
2013-4-28,88,66,51,51,47,42,88,56,20,0.00,40.00,19,8,29,0.00
2013-4-29,81,61,48,49,44,37,80,56,28,0.00,40.00,15,8,20,0.00
2013-4-30,70,64,54,54,37,26,71,40,19,0.00,40.00,13,8,22,0.00
2013-5-1,54,39,33,42,35,30,100,87,51,0.00,40.00,11,8,22,1.82
2013-5-2,53,42,35,32,28,24,79,59,34,0.00,40.00,15,11,28,0.04
2013-5-3,53,39,27,33,28,26,94,66,38,0.00,40.00,11,9,24,0.00
2013-5-4,42,39,36,40,37,30,98,91,65,0.00,40.00,14,10,22,0.07
2013-5-5,51,45,40,47,43,39,100,92,81,0.00,40.00,8,5,14,0.08
2013-5-6,67,53,45,50,46,44,99,80,50,0.00,40.00,6,4,10,0.01
2013-5-7,75,57,43,53,49,41,100,77,37,0.00,40.00,12,4,22,0.00
2013-5-8,66,59,56,61,57,53,100,93,81,0.00,40.00,6,4,13,0.98
2013-5-9,61,57,52,57,55,50,100,95,81,0.00,40.00,15,8,23,0.08
2013-5-10,69,55,45,52,43,-100,97,74,44,0.00,40.00,9,6,17,0.00
2013-5-11,57,50,36,49,30,-100,84,51,29,0.00,40.00,17,9,30,0.00
2013-5-12,67,50,29,28,24,19,84,41,19,0.00,40.00,7,4,11,0.00
2013-5-13,89,66,51,59,40,23,60,40,23,0.00,40.00,22,8,30,0.00
2013-5-14,100,78,64,59,50,37,69,43,17,0.00,40.00,20,7,30,0.00
2013-5-15,85,70,54,48,44,37,74,42,25,0.00,40.00,12,6,18,0.00
2013-5-16,85,60,55,61,32,-100,93,61,25,0.00,40.00,15,6,24,0.43
2013-5-17,90,73,60,67,56,-100,99,69,36,0.00,40.00,9,5,17,0.05
2013-5-18,87,75,64,66,62,59,87,65,44,0.00,40.00,10,4,19,0.00
2013-5-19,78,66,59,67,62,57,99,88,59,0.00,40.00,10,4,37,0.29
2013-5-20,69,62,56,59,56,54,100,82,61,0.00,40.00,17,8,25,0.04
2013-5-21,62,56,52,57,53,49,100,88,75,0.00,40.00,14,8,19,0.23
2013-5-22,56,53,49,53,51,49,100,93,81,0.00,40.00,10,8,19,0.24
2013-5-23,72,59,46,51,44,36,95,62,31,0.00,40.00,11,7,20,0.02
2013-5-24,75,63,49,49,44,39,70,52,37,0.00,40.00,12,7,23,0.00
2013-5-25,72,63,55,60,54,47,99,74,51,0.00,40.00,14,8,27,0.02
2013-5-26,71,58,53,65,56,52,100,94,80,0.00,40.00,17,8,34,0.55
2013-5-27,73,63,57,62,59,54,100,87,65,0.00,40.00,17,8,42,1.18
2013-5-28,80,66,57,62,60,57,100,82,52,0.00,40.00,10,5,19,0.05
2013-5-29,81,70,63,69,65,61,98,83,60,0.00,40.00,14,7,25,0.39
2013-5-30,76,68,61,64,61,52,98,79,50,0.00,40.00,17,7,29,0.40
2013-5-31,75,65,57,56,50,46,92,60,36,0.00,40.00,24,13,36,0.00
2013-6-1,60,55,51,56,51,-100,100,93,68,0.00,40.00,16,10,25,0.23
2013-6-2,70,58,48,50,46,42,95,65,37,0.00,40.00,9,5,15,0.04
2013-6-3,76,64,51,51,47,42,81,56,37,0.00,40.00,12,7,23,0.00
2013-6-4,70,64,59,61,57,51,99,79,60,0.00,40.00,9,5,20,0.07
2013-6-5,69,60,51,59,52,48,100,75,53,0.00,40.00,10,5,16,0.06
2013-6-6,68,61,53,55,53,50,98,78,57,0.00,40.00,8,5,14,0.00
2013-6-7,76,62,45,53,50,45,100,68,38,0.00,40.00,8,3,14,0.00
2013-6-8,63,60,56,61,55,49,100,86,60,0.00,40.00,11,7,21,1.17
2013-6-9,67,62,59,61,59,58,100,92,79,0.00,40.00,13,9,25,0.34
2013-6-10,79,68,55,64,60,55,100,79,58,0.00,40.00,7,4,17,0.01
2013-6-11,88,77,67,71,66,61,89,72,51,0.00,40.00,11,6,24,0.01
2013-6-12,78,71,60,72,64,53,94,80,61,0.00,40.00,16,8,28,0.20
2013-6-13,83,68,53,59,55,52,100,70,39,0.00,40.00,7,4,12,0.01
2013-6-14,80,72,64,70,62,54,84,71,61,0.00,40.00,8,6,24,0.12
2013-6-15,84,72,63,68,65,62,97,79,57,0.00,40.00,8,5,21,0.51
2013-6-16,85,70,58,66,59,53,100,75,34,0.00,40.00,5,2,21,0.51
2013-6-17,83,70,54,63,58,54,100,70,38,0.00,40.00,10,4,16,0.00
2013-6-18,88,73,57,61,57,54,97,62,31,0.00,40.00,6,3,11,0.00
2013-6-19,88,77,65,68,61,54,73,59,49,0.00,40.00,8,6,20,0.00
2013-6-20,89,77,71,71,67,63,81,71,55,0.00,40.00,8,6,21,0.00
2013-6-22,78,74,69,69,67,61,93,80,70,0.00,40.00,11,7,31,0.41
2013-6-23,84,74,63,68,65,62,98,76,53,0.00,40.00,13,6,32,0.06
2013-6-24,83,74,69,73,69,65,100,84,64,0.00,40.00,9,5,24,0.06
2013-6-25,87,78,71,74,69,60,91,74,58,0.00,40.00,9,4,22,0.01
2013-6-26,92,79,70,73,67,61,100,72,37,0.00,40.00,10,5,17,0.01
2013-6-27,87,76,68,70,66,61,99,74,42,0.00,40.00,8,4,15,0.13
2013-6-28,84,74,60,67,60,52,100,65,34,0.00,40.00,15,7,27,0.01
2013-6-29,80,70,58,61,57,55,90,65,43,0.00,40.00,13,7,29,0.00
2013-6-30,80,69,59,57,53,49,88,60,36,0.00,40.00,9,6,17,0.00
2013-7-1,85,71,52,60,54,51,99,59,31,0.00,40.00,8,4,16,0.00
2013-7-2,86,71,55,62,57,52,97,65,36,0.00,40.00,8,3,16,0.00
2013-7-3,87,72,55,62,58,54,100,65,36,0.00,40.00,6,3,10,0.00
2013-7-4,88,76,63,63,59,55,79,57,38,0.00,40.00,12,5,24,0.00
2013-7-5,88,78,69,69,62,57,73,58,48,0.00,40.00,11,6,21,0.00
2013-7-6,91,79,72,71,65,60,71,62,49,0.00,40.00,6,4,17,0.00
2013-7-7,91,80,70,76,69,63,95,70,53,0.00,40.00,9,3,32,0.38
2013-7-8,93,78,66,75,71,66,100,81,53,0.00,40.00,6,4,17,0.39
2013-7-9,90,81,72,75,71,67,89,73,52,0.00,40.00,10,5,22,0.01
2013-7-10,85,74,66,68,57,-100,95,62,37,0.00,40.00,10,5,15,0.01
2013-7-11,89,76,64,65,61,56,83,61,43,0.00,40.00,6,5,15,0.01
2013-7-12,93,80,69,73,66,60,73,63,50,0.00,40.00,7,5,21,0.01
2013-7-13,92,82,72,75,70,63,76,66,57,0.00,40.00,10,5,19,0.00
2013-7-14,86,78,72,71,65,57,76,65,46,0.00,40.00,9,5,19,0.00
2013-7-15,90,77,67,72,65,61,86,67,46,0.00,40.00,8,4,16,0.00
2013-7-16,90,85,76,68,67,64,74,55,47,0.00,40.00,10,7,17,0.00
2013-7-17,93,82,72,72,69,66,86,66,46,0.00,40.00,11,5,19,0.00
2013-7-18,93,85,72,71,70,68,88,63,45,0.00,40.00,15,8,25,0.00
2013-7-19,90,84,69,70,63,56,75,52,32,0.00,40.00,10,6,18,0.00
2013-7-20,84,71,61,67,61,-100,97,74,46,0.00,40.00,9,4,24,0.00
2013-7-21,91,78,65,71,67,63,100,71,41,0.00,40.00,5,4,11,0.00
2013-7-22,91,78,68,75,68,61,98,73,45,0.00,40.00,10,5,18,0.00
2013-7-23,81,71,62,63,59,56,91,69,47,0.00,40.00,9,6,17,0.00
2013-7-24,86,71,55,62,58,54,100,68,40,0.00,40.00,6,3,13,0.00
2013-7-25,87,74,65,69,65,60,97,76,56,0.00,40.00,10,4,27,0.25
2013-7-26,75,66,59,66,57,50,100,74,44,0.00,40.00,13,6,22,0.25
2013-7-27,72,61,47,53,47,44,95,65,36,0.00,40.00,11,6,21,0.00
2013-7-28,78,63,44,53,48,44,100,64,35,0.00,40.00,6,3,13,0.00
2013-7-29,68,62,52,60,54,48,89,74,65,0.00,40.00,7,4,17,0.00
2013-7-30,75,69,63,66,64,60,100,85,71,0.00,40.00,5,2,9,0.00
2013-7-31,85,72,59,67,62,56,100,75,41,0.00,40.00,7,4,14,0.00
2013-8-1,86,68,56,70,62,56,100,83,53,0.00,40.00,11,4,18,0.00
2013-8-2,71,66,63,67,63,58,100,90,73,0.00,40.00,10,5,16,0.75
2013-8-3,77,68,60,60,58,55,97,71,48,0.00,40.00,6,4,11,0.04
2013-8-4,80,68,54,66,60,53,98,77,60,0.00,40.00,8,4,14,0.10
2013-8-5,85,73,67,73,68,65,100,86,62,0.00,40.00,8,4,21,0.63
2013-8-6,88,74,63,72,67,63,100,81,53,0.00,40.00,8,4,16,0.02
2013-8-7,81,71,60,68,62,60,100,77,54,0.00,40.00,9,4,13,0.02
2013-8-8,79,69,63,68,64,59,98,83,70,0.00,40.00,7,4,13,0.08
2013-8-9,83,71,60,65,61,54,100,76,39,0.00,40.00,6,3,16,0.04
2013-8-10,80,68,60,68,62,56,100,82,57,0.00,40.00,8,4,15,0.52
2013-8-11,83,73,65,72,68,63,98,83,67,0.00,40.00,7,4,13,0.46
2013-8-12,81,70,58,67,64,58,100,82,57,0.00,40.00,7,4,12,0.00
2013-8-13,79,67,54,63,56,-100,100,72,48,0.00,40.00,6,4,11,0.00
2013-8-14,69,63,58,64,56,-100,100,85,69,0.00,40.00,6,4,10,0.23
2013-8-15,67,59,58,62,52,-100,98,89,80,0.00,40.00,8,5,14,0.17
2013-8-16,73,65,61,62,56,-100,94,80,68,0.00,40.00,6,4,14,0.03
2013-8-17,81,69,62,63,59,-100,91,72,54,0.00,40.00,9,5,18,0.00
2013-8-18,81,70,60,65,60,56,87,73,55,0.00,40.00,9,4,17,0.00
2013-8-19,87,72,65,72,62,-100,90,77,62,0.00,40.00,11,5,21,0.00
2013-8-20,91,78,68,77,72,67,98,82,64,0.00,40.00,7,4,13,0.03
2013-8-21,90,80,72,78,72,69,90,79,63,0.00,40.00,8,4,15,0.00
2013-8-22,86,76,68,74,70,66,100,82,59,0.00,40.00,12,4,35,1.28
2013-8-23,90,78,68,74,71,67,100,79,56,0.00,40.00,9,5,15,0.09
2013-8-24,90,79,72,78,71,-100,96,81,66,0.00,40.00,9,6,21,1.64
2013-8-25,91,82,73,77,74,70,91,76,63,0.00,40.00,12,6,21,0.02
2013-8-26,92,83,74,79,74,70,88,76,61,0.00,40.00,10,4,17,0.00
2013-8-27,90,80,73,75,70,67,82,73,61,0.00,40.00,9,5,14,0.00
2013-8-28,94,88,78,78,75,70,81,68,59,0.00,40.00,4,3,10,0.00
2013-8-29,93,82,69,78,73,67,92,76,55,0.00,40.00,6,4,13,0.00
2013-8-30,89,81,70,77,73,70,99,78,55,0.00,40.00,8,5,14,0.00
2013-8-31,91,78,68,77,70,-100,100,81,60,0.00,40.00,7,4,14,0.00
2013-9-1,80,71,61,73,64,60,100,79,50,0.00,40.00,11,6,26,0.26
2013-9-2,80,65,51,60,56,51,100,75,43,0.00,40.00,7,3,11,0.01
2013-9-3,83,70,56,70,62,53,92,75,57,0.00,40.00,7,3,14,0.01
2013-9-4,88,75,68,71,66,62,87,73,54,0.00,40.00,5,3,10,0.02
2013-9-5,86,74,69,72,67,64,88,79,59,0.00,40.00,7,4,16,0.04
2013-9-6,91,78,67,75,69,63,89,74,55,0.00,40.00,6,4,17,0.02
2013-9-7,85,76,70,76,70,-100,93,82,72,0.00,40.00,8,4,15,0.00
2013-9-8,87,78,71,75,73,70,98,84,67,0.00,40.00,8,6,16,0.00
2013-9-9,95,82,73,75,69,65,95,68,41,0.00,40.00,12,6,20,0.00
2013-9-10,83,74,63,69,66,62,100,79,53,0.00,40.00,8,4,13,0.00
2013-9-11,88,72,59,68,63,59,100,76,38,0.00,40.00,6,3,11,0.00
2013-9-12,79,68,54,61,52,47,97,60,32,0.00,40.00,10,5,20,0.00
2013-9-13,77,63,46,52,50,46,100,66,38,0.00,40.00,6,3,13,0.00
2013-9-14,72,63,54,57,52,-100,86,70,54,0.00,40.00,9,4,17,0.00
2013-9-15,70,64,57,61,56,53,95,77,57,0.00,40.00,12,6,20,0.00
2013-9-16,72,60,51,55,53,51,100,78,51,0.00,40.00,7,4,14,0.00
2013-9-17,68,62,57,66,59,53,99,93,80,0.00,40.00,8,5,14,0.00
2013-9-18,78,70,68,70,68,66,96,93,75,0.00,40.00,7,5,16,0.00
2013-9-19,78,69,55,69,60,49,93,76,41,0.00,40.00,18,7,31,0.03
2013-9-20,69,56,41,52,45,39,95,71,35,0.00,40.00,12,6,22,0.03
2013-9-21,78,57,37,51,42,-100,100,66,34,0.00,40.00,8,4,14,0.00
2013-9-22,85,70,58,56,52,48,85,56,30,0.00,40.00,13,6,25,0.00
2013-9-23,81,68,57,53,51,49,77,57,35,0.00,40.00,9,6,21,0.00
2013-9-24,76,64,57,62,56,50,95,78,54,0.00,40.00,8,4,16,0.16
2013-9-25,80,66,49,60,56,49,100,74,47,0.00,40.00,11,4,20,0.02
2013-9-26,88,74,63,61,59,58,86,62,37,0.00,40.00,11,7,22,0.00
2013-9-27,86,76,69,63,61,59,77,61,44,0.00,40.00,12,7,22,0.00
2013-9-28,75,58,48,60,48,-100,100,72,41,0.00,40.00,13,7,25,0.29
2013-9-29,81,63,49,47,44,41,81,53,25,0.00,40.00,16,6,24,0.02
2013-9-30,85,68,54,52,48,45,76,52,27,0.00,40.00,13,6,21,0.00
2013-10-1,66,64,62,40,38,36,44,38,35,0.00,40.00,5,4,7,0.00
2013-10-2,83,66,47,64,53,36,89,65,35,0.00,40.00,11,4,19,0.07
2013-10-3,69,63,54,62,59,53,100,90,75,0.00,40.00,11,4,22,0.01
2013-10-4,72,62,49,67,60,45,98,92,81,0.00,40.00,14,8,25,1.21
2013-10-5,49,44,38,45,37,35,100,79,63,0.00,40.00,17,10,27,1.19
2013-10-6,58,46,41,46,42,36,100,88,46,0.00,40.00,13,7,23,0.15
2013-10-7,76,56,35,47,42,35,100,66,29,0.00,40.00,6,3,12,0.01
2013-10-8,79,64,51,47,44,41,68,50,30,0.00,40.00,12,6,27,0.00
2013-10-9,79,66,52,53,49,45,84,57,37,0.00,40.00,8,5,22,0.00
2013-10-10,81,70,60,56,53,49,77,56,40,0.00,40.00,9,6,24,0.00
2013-10-11,76,64,46,58,52,42,85,66,34,0.00,40.00,20,8,33,0.00
2013-10-12,64,52,38,42,33,-100,90,55,27,0.00,40.00,13,6,26,0.00
2013-10-13,70,50,30,40,34,29,98,61,28,0.00,40.00,8,4,16,0.00
2013-10-14,55,49,44,54,45,35,98,86,49,0.00,40.00,16,8,29,2.31
2013-10-15,56,46,42,56,44,41,100,94,88,0.00,40.00,14,10,25,0.70
2013-10-16,57,46,37,42,38,33,96,75,44,0.00,40.00,9,6,17,0.00
2013-10-17,54,41,31,44,37,31,100,87,66,0.00,40.00,15,6,24,0.00
2013-10-18,54,42,30,39,33,28,100,75,38,0.00,40.00,8,5,20,0.00
2013-10-19,58,45,34,39,34,-100,100,72,42,0.00,40.00,13,5,23,0.00
2013-10-20,60,47,39,43,38,30,91,70,48,0.00,40.00,15,7,31,0.00
2013-10-21,51,41,28,40,32,28,100,73,43,0.00,40.00,9,4,18,0.00
2013-10-22,42,38,36,42,36,33,100,92,77,0.00,40.00,8,4,14,0.12
2013-10-23,42,36,26,39,34,26,100,93,76,0.00,40.00,7,3,15,0.08
2013-10-24,50,38,27,33,29,26,100,74,43,0.00,40.00,9,5,17,0.01
2013-10-25,62,44,27,39,33,25,93,68,41,0.00,40.00,18,7,27,0.00
2013-10-26,50,42,31,39,30,-100,88,67,41,0.00,40.00,11,7,20,0.00
2013-10-27,70,46,29,39,33,27,92,63,31,0.00,40.00,15,6,26,0.00
2013-10-28,45,40,35,35,32,-100,85,74,65,0.00,40.00,13,9,24,0.00
2013-10-29,45,41,38,45,40,35,100,94,85,0.00,40.00,9,5,17,0.40
2013-10-30,45,41,39,45,41,38,100,100,97,0.00,40.00,8,5,16,0.13
2013-10-31,51,39,30,43,36,30,100,90,66,0.00,40.00,9,4,18,0.01
2013-11-1,57,45,39,43,39,36,94,82,50,0.00,40.00,13,8,36,0.01
2013-11-2,59,43,32,40,32,-100,100,71,33,0.00,40.00,11,6,22,0.01
2013-11-3,58,49,40,39,34,31,73,56,42,0.00,40.00,11,6,26,0.00
2013-11-4,56,45,30,40,35,27,90,70,41,0.00,40.00,12,4,21,0.01
2013-11-5,37,33,25,35,31,25,100,94,78,0.00,40.00,14,6,24,0.23
2013-11-6,40,32,23,33,30,23,100,93,73,0.00,40.00,8,5,18,0.30
2013-11-7,44,32,21,29,26,21,100,82,52,0.00,40.00,12,4,19,0.03
2013-11-8,55,44,32,41,33,25,83,64,53,0.00,40.00,14,6,26,0.00
2013-11-9,54,43,32,38,32,-100,91,67,48,0.00,40.00,13,6,23,0.00
2013-11-10,52,39,23,35,29,22,98,71,40,0.00,40.00,10,4,20,0.00
2013-11-11,42,25,11,36,18,9,92,76,54,0.00,40.00,20,9,30,0.00
2013-11-12,36,20,4,13,10,3,98,69,33,0.00,40.00,9,3,16,0.00
2013-11-13,59,39,24,32,24,13,75,58,35,0.00,40.00,16,6,25,0.00
2013-11-14,60,41,30,42,34,28,98,77,44,0.00,40.00,8,3,15,0.00
2013-11-15,58,42,29,40,35,28,100,77,51,0.00,40.00,8,4,15,0.00
2013-11-16,61,47,41,48,38,-100,95,75,40,0.00,40.00,15,6,20,0.00
2013-11-17,51,43,36,40,35,25,95,74,47,0.00,40.00,11,5,20,0.04
2013-11-18,49,37,26,33,29,25,97,75,50,0.00,40.00,8,4,15,0.02
2013-11-19,61,48,35,34,29,26,70,51,35,0.00,40.00,12,7,27,0.00
2013-11-20,54,47,35,35,32,29,88,57,44,0.00,40.00,8,4,23,0.00
2013-11-21,35,26,19,32,20,15,93,79,62,0.00,40.00,15,11,28,0.00
2013-11-22,33,18,2,16,10,0,93,73,42,0.00,40.00,10,6,19,0.00
2013-11-23,22,14,7,15,4,-100,84,69,41,0.00,40.00,10,6,18,0.00
2013-11-24,38,23,10,19,12,4,84,66,46,0.00,40.00,17,7,26,0.00
2013-11-25,44,33,19,29,24,17,93,70,51,0.00,40.00,13,7,21,0.00
2013-11-26,29,23,13,25,13,5,99,67,38,0.00,40.00,17,8,29,0.00
2013-11-27,33,19,4,20,11,3,96,72,44,0.00,40.00,12,4,24,0.00
2013-11-28,34,25,11,21,16,10,94,71,48,0.00,40.00,11,7,20,0.00
2013-11-29,40,27,11,25,19,10,94,73,52,0.00,40.00,7,4,17,0.00
2013-11-30,51,34,22,32,25,-100,100,74,45,0.00,40.00,7,3,12,0.00
2013-12-1,36,31,21,27,25,21,99,80,66,0.00,40.00,5,2,12,0.00
2013-12-2,54,40,31,34,31,27,88,71,47,0.00,40.00,7,3,13,0.00
2013-12-3,37,33,29,33,31,27,100,90,80,0.00,40.00,12,7,19,0.00
2013-12-4,29,18,11,28,16,7,99,92,81,0.00,40.00,15,12,28,0.00
2013-12-5,12,5,-2,7,0,-7,85,78,65,0.00,40.00,16,10,27,0.00
2013-12-6,4,-3,-9,-4,-8,-12,86,79,69,0.00,40.00,11,7,19,0.00
2013-12-7,8,-2,-13,4,-8,-100,91,81,62,0.00,40.00,7,3,11,0.00
2013-12-8,17,10,2,10,7,0,99,87,74,0.00,40.00,7,4,13,0.00
2013-12-9,17,4,-6,10,-2,-10,97,77,62,0.00,40.00,12,7,20,0.00
2013-12-10,26,19,10,21,12,4,94,76,59,0.00,40.00,17,7,32,0.00
2013-12-11,17,5,-9,15,-1,-11,92,75,57,0.00,40.00,12,6,23,0.00
2013-12-12,35,21,8,22,14,5,94,76,49,0.00,40.00,6,3,11,0.05
2013-12-13,26,19,15,20,16,14,100,89,75,0.00,40.00,11,6,20,0.02
2013-12-14,17,12,6,14,8,-100,95,87,76,0.00,40.00,10,6,16,0.00
2013-12-15,20,15,8,14,11,7,95,84,71,0.00,40.00,7,5,14,0.00
2013-12-16,34,21,7,29,18,6,95,87,72,0.00,40.00,12,4,20,0.00
2013-12-17,36,31,19,29,23,16,100,72,46,0.00,40.00,13,7,22,0.00
2013-12-18,53,36,28,31,26,20,94,69,41,0.00,40.00,6,3,14,0.00
2013-12-19,36,20,11,29,16,8,88,84,74,0.00,40.00,13,10,24,0.00
2013-12-20,15,12,10,10,9,7,89,85,79,0.00,40.00,9,6,18,0.00
2013-12-21,26,17,10,18,12,-100,91,83,64,0.00,40.00,11,5,19,0.00
2013-12-22,16,9,0,13,4,-4,90,80,66,0.00,40.00,13,9,21,0.00
2013-12-23,4,-4,-10,-4,-12,-16,86,69,39,0.00,40.00,12,8,19,0.00
2013-12-24,22,11,-6,21,5,-15,96,77,60,0.00,40.00,14,7,27,0.00
2013-12-25,37,24,15,32,20,15,100,86,53,0.00,40.00,15,5,26,0.00
2013-12-26,47,31,19,26,23,17,97,72,38,0.00,40.00,8,3,13,0.00
2013-12-27,55,35,17,32,26,17,100,76,38,0.00,40.00,11,4,16,0.00
2013-12-28,62,36,7,32,22,-100,80,63,24,0.00,40.00,23,9,37,0.00
2013-12-29,8,1,-5,2,-10,-14,80,60,39,0.00,40.00,16,10,31,0.00
2013-12-30,25,11,1,21,4,-10,92,74,52,0.00,40.00,14,7,21,0.00
2013-12-31,15,9,4,9,4,0,92,82,78,0.00,40.00,10,6,19,0.00
2014-1-1,5,3,0,1,-2,-3,87,80,72,0.00,40.00,9,7,18,0.00
2014-1-2,8,-2,-11,-4,-7,-13,92,78,56,0.00,40.00,8,3,12,0.00